Time;durP1;ratioP1;P1;durP2;ratioP2;P2;SDS_P1;SDS_P2;PMS_P1;PMS_P2;Temp;Humidity;BMP_temperature;BMP_pressure;BME280_temperature;BME280_humidity;BME280_pressure;Samples;Min_cycle;Max_cycle;Signal;HPM_P1;HPM_P2
2021/09/01 00:00:58;;;;;;;60.03;34.38;;;;;;;;;;5013169;28;20025;-51
2021/09/01 00:03:24;;;;;;;28.05;16.17;;;;;;;;;;5013351;28;20069;-51
2021/09/01 00:05:50;;;;;;;32.60;18.25;;;;;;;;;;5013098;28;20029;-52
2021/09/01 00:08:19;;;;;;;27.23;15.75;;;;;;;;;;5012865;28;20496;-51
2021/09/01 00:10:45;;;;;;;25.30;14.35;;;;;;;;;;5011666;28;20042;-50
2021/09/01 00:13:11;;;;;;;13.65;7.78;;;;;;;;;;4993390;28;20034;-49
2021/09/01 00:15:37;;;;;;;22.25;12.43;;;;;;;;;;4993259;28;20034;-50
2021/09/01 00:18:04;;;;;;;34.67;19.45;;;;;;;;;;4993450;28;20029;-51
2021/09/01 00:20:34;;;;;;;14.85;9.18;;;;;;;;;;4993177;28;20058;-52
2021/09/01 00:23:00;;;;;;;6.95;4.85;;;;;;;;;;4993218;28;20403;-50
2021/09/01 00:25:26;;;;;;;26.80;15.90;;;;;;;;;;4993274;28;20022;-49
2021/09/01 00:27:52;;;;;;;12.95;7.47;;;;;;;;;;4993423;28;20049;-49
2021/09/01 00:30:19;;;;;;;8.30;5.30;;;;;;;;;;4993145;28;20360;-48
2021/09/01 00:32:45;;;;;;;3.47;2.58;;;;;;;;;;4993288;28;20080;-49
2021/09/01 00:35:11;;;;;;;21.00;10.95;;;;;;;;;;4993331;28;20038;-49
2021/09/01 00:37:37;;;;;;;26.58;15.95;;;;;;;;;;4993197;28;20027;-49
2021/09/01 00:40:03;;;;;;;33.20;19.75;;;;;;;;;;4993046;28;20031;-49
2021/09/01 00:42:29;;;;;;;106.63;62.90;;;;;;;;;;4993245;28;20494;-49
2021/09/01 00:44:55;;;;;;;38.92;23.15;;;;;;;;;;4993045;28;20022;-49
2021/09/01 00:47:22;;;;;;;29.98;14.88;;;;;;;;;;4993122;28;20136;-49
2021/09/01 00:49:50;;;;;;;70.68;35.38;;;;;;;;;;4993136;28;20022;-50
2021/09/01 00:52:16;;;;;;;21.77;12.43;;;;;;;;;;4993223;28;20080;-48
2021/09/01 00:54:45;;;;;;;8.90;5.72;;;;;;;;;;4993020;28;20053;-48
2021/09/01 00:57:12;;;;;;;45.42;23.60;;;;;;;;;;4996068;28;20031;-48
2021/09/01 00:59:40;;;;;;;41.65;23.50;;;;;;;;;;4996458;28;20018;-49
2021/09/01 01:02:06;;;;;;;26.92;13.85;;;;;;;;;;4996435;28;20093;-49
2021/09/01 01:04:32;;;;;;;26.92;15.95;;;;;;;;;;4996438;28;20026;-49
2021/09/01 01:07:02;;;;;;;20.52;12.55;;;;;;;;;;4996449;28;20109;-48
2021/09/01 01:09:29;;;;;;;9.27;6.25;;;;;;;;;;4996121;28;20518;-48
2021/09/01 01:12:09;;;;;;;5.90;2.38;;;;;;;;;;4996286;28;20034;-49
2021/09/01 01:14:39;;;;;;;5.00;3.13;;;;;;;;;;4996452;28;20027;-49
2021/09/01 01:17:06;;;;;;;4.50;3.03;;;;;;;;;;4996313;28;20105;-49
2021/09/01 01:19:32;;;;;;;4.18;2.75;;;;;;;;;;4996273;28;20072;-48
2021/09/01 01:21:58;;;;;;;3.70;2.70;;;;;;;;;;4996211;28;20018;-49
2021/09/01 01:24:26;;;;;;;7.03;2.47;;;;;;;;;;4996306;28;20440;-49
2021/09/01 01:26:52;;;;;;;3.75;1.85;;;;;;;;;;4996053;28;20030;-49
2021/09/01 01:29:18;;;;;;;2.25;2.05;;;;;;;;;;4996214;28;20387;-52
2021/09/01 01:31:44;;;;;;;2.95;2.17;;;;;;;;;;4996198;28;20022;-50
2021/09/01 01:34:17;;;;;;;2.88;2.00;;;;;;;;;;4996206;28;20364;-49
2021/09/01 01:36:43;;;;;;;3.65;2.35;;;;;;;;;;4995953;28;20181;-49
2021/09/01 01:39:09;;;;;;;3.70;2.40;;;;;;;;;;4995828;28;20031;-49
2021/09/01 01:41:35;;;;;;;2.15;1.92;;;;;;;;;;4995790;28;20516;-49
2021/09/01 01:44:01;;;;;;;5.05;2.33;;;;;;;;;;4995849;28;20061;-49
2021/09/01 01:46:27;;;;;;;3.20;2.50;;;;;;;;;;4995915;28;20414;-49
2021/09/01 01:48:53;;;;;;;3.03;2.13;;;;;;;;;;4995793;28;20030;-48
2021/09/01 01:51:19;;;;;;;2.92;2.50;;;;;;;;;;4995799;28;20041;-49
2021/09/01 01:53:45;;;;;;;4.18;1.95;;;;;;;;;;4994247;28;20474;-49
2021/09/01 01:56:11;;;;;;;4.32;1.95;;;;;;;;;;4995384;28;20368;-53
2021/09/01 01:58:37;;;;;;;4.68;2.55;;;;;;;;;;4995562;28;20026;-48
2021/09/01 02:01:03;;;;;;;3.78;2.30;;;;;;;;;;4995571;28;20034;-53
2021/09/01 02:03:30;;;;;;;4.90;2.35;;;;;;;;;;4995385;28;20054;-48
2021/09/01 02:05:56;;;;;;;2.70;2.33;;;;;;;;;;4995362;28;20470;-48
2021/09/01 02:08:22;;;;;;;3.13;2.33;;;;;;;;;;4994344;28;20038;-47
2021/09/01 02:10:48;;;;;;;2.83;2.35;;;;;;;;;;4995147;28;20067;-48
2021/09/01 02:13:14;;;;;;;2.83;2.45;;;;;;;;;;4995115;28;20486;-52
2021/09/01 02:15:40;;;;;;;7.18;2.75;;;;;;;;;;4995128;28;20034;-52
2021/09/01 02:18:07;;;;;;;4.22;2.58;;;;;;;;;;4995414;28;20050;-52
2021/09/01 02:20:34;;;;;;;5.60;3.22;;;;;;;;;;4994992;28;20220;-47
2021/09/01 02:23:00;;;;;;;4.72;2.72;;;;;;;;;;4994953;28;20475;-49
2021/09/01 02:25:27;;;;;;;4.60;2.85;;;;;;;;;;4995015;28;20026;-52
2021/09/01 02:27:53;;;;;;;4.22;2.10;;;;;;;;;;4994933;28;20037;-52
2021/09/01 02:30:22;;;;;;;4.82;2.65;;;;;;;;;;4994849;28;20451;-52
2021/09/01 02:32:48;;;;;;;3.85;2.55;;;;;;;;;;4994717;28;20054;-50
2021/09/01 02:35:14;;;;;;;3.38;2.50;;;;;;;;;;4994915;28;20395;-48
2021/09/01 02:37:40;;;;;;;3.15;2.40;;;;;;;;;;4994890;28;20062;-49
2021/09/01 02:40:07;;;;;;;2.92;2.50;;;;;;;;;;4994593;28;20034;-49
2021/09/01 02:42:33;;;;;;;3.22;2.60;;;;;;;;;;4993290;28;20082;-49
2021/09/01 02:45:00;;;;;;;4.25;2.35;;;;;;;;;;4993710;28;20402;-49
2021/09/01 02:47:26;;;;;;;3.53;2.60;;;;;;;;;;4994616;28;20065;-54
2021/09/01 02:49:52;;;;;;;3.38;2.80;;;;;;;;;;4993396;28;20035;-53
2021/09/01 02:52:18;;;;;;;2.30;2.10;;;;;;;;;;4994373;28;20035;-50
2021/09/01 02:54:47;;;;;;;2.85;2.40;;;;;;;;;;4994443;28;20046;-52
2021/09/01 02:57:13;;;;;;;3.67;2.53;;;;;;;;;;4994263;28;20038;-49
2021/09/01 02:59:41;;;;;;;5.47;3.15;;;;;;;;;;4994559;28;20030;-50
2021/09/01 03:02:07;;;;;;;3.47;2.70;;;;;;;;;;4994425;28;20030;-49
2021/09/01 03:04:33;;;;;;;4.28;2.88;;;;;;;;;;4994410;28;20027;-49
2021/09/01 03:06:59;;;;;;;4.07;2.60;;;;;;;;;;4994411;28;20026;-49
2021/09/01 03:09:26;;;;;;;4.97;3.00;;;;;;;;;;4993903;28;20046;-50
2021/09/01 03:11:52;;;;;;;4.70;2.97;;;;;;;;;;4994222;28;20035;-51
2021/09/01 03:14:20;;;;;;;3.97;2.47;;;;;;;;;;4994375;28;20030;-49
2021/09/01 03:16:46;;;;;;;3.53;3.00;;;;;;;;;;4994363;28;20041;-50
2021/09/01 03:19:12;;;;;;;3.08;2.67;;;;;;;;;;4994305;28;20509;-49
2021/09/01 03:21:40;;;;;;;3.92;2.78;;;;;;;;;;4994151;28;20454;-49
2021/09/01 03:24:06;;;;;;;5.10;2.85;;;;;;;;;;4994026;28;20025;-49
2021/09/01 03:26:37;;;;;;;6.13;2.90;;;;;;;;;;4993929;28;20054;-49
2021/09/01 03:29:03;;;;;;;7.78;3.20;;;;;;;;;;4994024;28;20501;-50
2021/09/01 03:31:29;;;;;;;4.90;3.50;;;;;;;;;;4994002;28;20105;-50
2021/09/01 03:33:55;;;;;;;7.53;4.30;;;;;;;;;;4993785;28;20026;-50
2021/09/01 03:36:21;;;;;;;9.60;3.95;;;;;;;;;;4993790;28;20150;-51
2021/09/01 03:38:48;;;;;;;5.72;3.33;;;;;;;;;;4993693;28;20459;-50
2021/09/01 03:41:14;;;;;;;7.18;3.85;;;;;;;;;;4993660;28;20037;-51
2021/09/01 03:43:40;;;;;;;8.18;3.90;;;;;;;;;;4993787;28;20050;-51
2021/09/01 03:46:08;;;;;;;8.45;3.50;;;;;;;;;;4993701;28;20073;-49
2021/09/01 03:48:34;;;;;;;6.20;3.72;;;;;;;;;;4993742;28;20101;-50
2021/09/01 03:51:01;;;;;;;8.55;3.65;;;;;;;;;;4993769;28;20030;-51
2021/09/01 03:53:27;;;;;;;6.60;3.60;;;;;;;;;;4993721;28;20027;-50
2021/09/01 03:55:53;;;;;;;5.85;3.50;;;;;;;;;;4993514;28;20037;-51
2021/09/01 03:58:19;;;;;;;5.60;3.80;;;;;;;;;;4993653;28;20059;-52
2021/09/01 04:00:45;;;;;;;7.07;3.67;;;;;;;;;;4993574;28;20106;-51
2021/09/01 04:03:12;;;;;;;8.80;4.18;;;;;;;;;;4993501;28;20356;-51
2021/09/01 04:05:38;;;;;;;7.93;4.43;;;;;;;;;;4993552;28;20022;-51
2021/09/01 04:08:04;;;;;;;6.18;4.40;;;;;;;;;;4993590;28;20040;-51
2021/09/01 04:10:30;;;;;;;7.63;3.70;;;;;;;;;;4993162;28;20046;-50
2021/09/01 04:12:56;;;;;;;5.70;3.55;;;;;;;;;;4993474;28;20037;-51
2021/09/01 04:15:22;;;;;;;5.05;3.40;;;;;;;;;;4993373;28;20152;-50
2021/09/01 04:17:48;;;;;;;8.63;3.72;;;;;;;;;;4993517;28;20395;-51
2021/09/01 04:20:14;;;;;;;9.25;3.85;;;;;;;;;;4993485;28;20030;-51
2021/09/01 04:22:40;;;;;;;4.90;3.47;;;;;;;;;;4993423;28;20030;-51
2021/09/01 04:25:07;;;;;;;9.70;3.67;;;;;;;;;;4993371;28;20050;-50
2021/09/01 04:27:33;;;;;;;5.43;3.35;;;;;;;;;;4993303;28;20031;-49
2021/09/01 04:29:59;;;;;;;5.45;3.20;;;;;;;;;;4993441;28;20030;-49
2021/09/01 04:32:25;;;;;;;5.57;3.42;;;;;;;;;;4997094;28;20444;-51
2021/09/01 04:34:51;;;;;;;20.35;9.98;;;;;;;;;;4997119;28;20026;-52
2021/09/01 04:37:17;;;;;;;8.77;4.40;;;;;;;;;;4997138;28;20034;-50
2021/09/01 04:39:43;;;;;;;11.00;6.70;;;;;;;;;;4996739;28;20062;-50
2021/09/01 04:42:09;;;;;;;21.00;9.40;;;;;;;;;;4996899;28;20034;-54
2021/09/01 04:44:35;;;;;;;19.05;9.93;;;;;;;;;;4996939;28;20015;-54
2021/09/01 04:47:02;;;;;;;19.85;9.80;;;;;;;;;;4996938;28;20030;-52
2021/09/01 04:49:28;;;;;;;20.55;10.32;;;;;;;;;;4996305;28;20026;-53
2021/09/01 04:51:54;;;;;;;27.95;14.68;;;;;;;;;;4996165;28;20026;-51
2021/09/01 04:54:20;;;;;;;24.40;12.63;;;;;;;;;;4996167;28;20023;-52
2021/09/01 04:56:46;;;;;;;67.43;31.67;;;;;;;;;;4996420;28;20494;-51
2021/09/01 04:59:12;;;;;;;43.45;15.38;;;;;;;;;;4996228;28;20038;-50
2021/09/01 05:01:38;;;;;;;30.40;14.38;;;;;;;;;;4996431;28;20026;-49
2021/09/01 05:04:05;;;;;;;17.73;9.40;;;;;;;;;;4996584;28;20022;-49
2021/09/01 05:06:31;;;;;;;19.08;7.85;;;;;;;;;;4996896;28;20027;-45
2021/09/01 05:09:01;;;;;;;232.07;89.95;;;;;;;;;;4996092;28;20026;-48
2021/09/01 05:11:27;;;;;;;30.38;13.40;;;;;;;;;;4996242;28;20078;-49
2021/09/01 05:13:53;;;;;;;35.55;18.73;;;;;;;;;;4996457;28;20105;-43
2021/09/01 05:16:19;;;;;;;61.13;35.28;;;;;;;;;;4996222;28;20037;-45
2021/09/01 05:18:45;;;;;;;62.08;14.80;;;;;;;;;;4996394;28;20022;-43
2021/09/01 05:21:13;;;;;;;8.73;4.55;;;;;;;;;;4996071;28;20109;-44
2021/09/01 05:23:40;;;;;;;62.95;35.13;;;;;;;;;;4996056;28;20014;-52
2021/09/01 05:26:06;;;;;;;329.73;129.15;;;;;;;;;;4996140;28;20073;-42
2021/09/01 05:28:34;;;;;;;33.67;18.08;;;;;;;;;;4995961;28;20080;-41
2021/09/01 05:31:01;;;;;;;10.68;4.43;;;;;;;;;;4996143;28;20027;-40
2021/09/01 05:33:33;;;;;;;712.92;239.63;;;;;;;;;;4995911;28;20040;-40
2021/09/01 05:36:00;;;;;;;235.65;99.47;;;;;;;;;;4995799;28;20042;-41
2021/09/01 05:38:26;;;;;;;105.65;31.05;;;;;;;;;;4995651;28;20018;-40
2021/09/01 05:40:53;;;;;;;69.10;32.92;;;;;;;;;;4995778;28;20177;-48
2021/09/01 05:43:21;;;;;;;125.93;46.42;;;;;;;;;;4994502;28;20015;-49
2021/09/01 05:45:48;;;;;;;122.65;66.28;;;;;;;;;;4995627;28;20026;-42
2021/09/01 05:48:15;;;;;;;440.38;190.75;;;;;;;;;;4995733;28;20026;-42
2021/09/01 05:50:42;;;;;;;44.15;24.17;;;;;;;;;;4995698;28;20025;-50
2021/09/01 05:53:13;;;;;;;22.48;11.25;;;;;;;;;;4995573;28;20061;-52
2021/09/01 05:55:44;;;;;;;10.80;6.10;;;;;;;;;;4995480;28;20554;-50
2021/09/01 05:58:17;;;;;;;14.82;7.70;;;;;;;;;;4995552;28;20022;-51
2021/09/01 06:00:43;;;;;;;10.73;5.63;;;;;;;;;;4995689;28;20066;-55
2021/09/01 06:03:28;;;;;;;169.25;36.92;;;;;;;;;;4995704;28;20022;-55
2021/09/01 06:05:56;;;;;;;23.10;10.30;;;;;;;;;;4995459;28;20026;-55
2021/09/01 06:08:25;;;;;;;6.32;3.72;;;;;;;;;;4995181;28;20482;-52
2021/09/01 06:11:00;;;;;;;15.02;6.28;;;;;;;;;;4993961;28;20058;-53
2021/09/01 06:13:26;;;;;;;6.38;3.53;;;;;;;;;;4995516;28;20018;-50
2021/09/01 06:15:52;;;;;;;5.95;3.17;;;;;;;;;;4993904;28;20030;-54
2021/09/01 06:18:18;;;;;;;10.60;5.43;;;;;;;;;;4995337;28;20038;-52
2021/09/01 06:20:45;;;;;;;16.35;6.57;;;;;;;;;;4995177;28;20032;-49
2021/09/01 06:23:11;;;;;;;9.30;3.40;;;;;;;;;;4994868;28;20046;-51
2021/09/01 06:25:37;;;;;;;6.18;3.22;;;;;;;;;;4995101;28;20014;-50
2021/09/01 06:28:04;;;;;;;44.17;5.15;;;;;;;;;;4995307;28;20018;-49
2021/09/01 06:30:30;;;;;;;21.33;12.15;;;;;;;;;;4994997;28;20031;-49
2021/09/01 06:32:56;;;;;;;6.15;3.58;;;;;;;;;;4994954;28;20096;-48
2021/09/01 06:35:22;;;;;;;7.85;4.43;;;;;;;;;;4995085;28;20068;-51
2021/09/01 06:37:49;;;;;;;5.35;3.10;;;;;;;;;;4994821;28;20605;-54
2021/09/01 06:40:16;;;;;;;7.90;3.20;;;;;;;;;;4995143;28;20045;-50
2021/09/01 06:42:45;;;;;;;6.68;2.97;;;;;;;;;;4994826;28;20034;-48
2021/09/01 06:45:11;;;;;;;4.03;2.67;;;;;;;;;;4994820;28;20042;-52
2021/09/01 06:47:43;;;;;;;3.45;3.05;;;;;;;;;;4995000;28;20102;-53
2021/09/01 06:50:10;;;;;;;4.55;2.90;;;;;;;;;;4994701;28;20494;-53
2021/09/01 06:52:38;;;;;;;7.38;3.53;;;;;;;;;;4994601;28;20023;-54
2021/09/01 06:55:04;;;;;;;4.68;2.80;;;;;;;;;;4994297;28;20030;-50
2021/09/01 06:57:30;;;;;;;6.20;3.60;;;;;;;;;;4994419;28;20173;-50
2021/09/01 06:59:56;;;;;;;9.73;4.63;;;;;;;;;;4994469;28;20054;-50
2021/09/01 07:02:22;;;;;;;13.75;5.57;;;;;;;;;;4994550;28;20031;-50
2021/09/01 07:04:48;;;;;;;20.88;11.50;;;;;;;;;;4994371;28;20061;-47
2021/09/01 07:07:15;;;;;;;15.32;8.52;;;;;;;;;;4992914;28;20069;-48
2021/09/01 07:09:41;;;;;;;9.43;5.45;;;;;;;;;;4994030;28;20049;-48
2021/09/01 07:12:07;;;;;;;7.65;4.20;;;;;;;;;;4994461;28;20545;-48
2021/09/01 07:14:33;;;;;;;6.47;3.30;;;;;;;;;;4994540;28;20030;-48
2021/09/01 07:16:59;;;;;;;10.65;3.40;;;;;;;;;;4994169;28;20125;-48
2021/09/01 07:19:25;;;;;;;7.50;3.42;;;;;;;;;;4994146;28;20486;-50
2021/09/01 07:21:51;;;;;;;11.80;7.65;;;;;;;;;;4994237;28;20035;-47
2021/09/01 07:24:20;;;;;;;45.50;18.85;;;;;;;;;;4994188;28;20018;-47
2021/09/01 07:26:46;;;;;;;10.23;6.95;;;;;;;;;;4994235;28;20066;-47
2021/09/01 07:29:12;;;;;;;14.95;9.45;;;;;;;;;;4994179;28;20105;-48
2021/09/01 07:31:38;;;;;;;12.23;6.93;;;;;;;;;;4993870;28;20034;-47
2021/09/01 07:34:04;;;;;;;9.23;4.75;;;;;;;;;;4994213;28;20040;-47
2021/09/01 07:36:30;;;;;;;7.30;3.40;;;;;;;;;;4993763;28;20069;-49
2021/09/01 07:38:56;;;;;;;6.82;4.47;;;;;;;;;;4993911;28;20101;-47
2021/09/01 07:41:22;;;;;;;8.52;3.90;;;;;;;;;;4993883;28;20042;-47
2021/09/01 07:43:48;;;;;;;6.60;3.55;;;;;;;;;;4993746;28;20089;-47
2021/09/01 07:46:14;;;;;;;13.88;4.20;;;;;;;;;;4993885;28;20065;-47
2021/09/01 07:48:40;;;;;;;4.43;3.42;;;;;;;;;;4993958;28;20022;-47
2021/09/01 07:51:07;;;;;;;5.30;3.33;;;;;;;;;;4993569;28;20372;-46
2021/09/01 07:53:33;;;;;;;6.35;3.45;;;;;;;;;;4993748;28;20027;-49
2021/09/01 07:55:59;;;;;;;4.57;3.40;;;;;;;;;;4992310;28;20035;-47
2021/09/01 07:58:25;;;;;;;4.38;3.17;;;;;;;;;;4993804;28;20153;-48
2021/09/01 08:00:51;;;;;;;6.40;3.28;;;;;;;;;;4993762;28;20416;-48
2021/09/01 08:03:17;;;;;;;4.90;3.80;;;;;;;;;;4993576;28;20025;-48
2021/09/01 08:05:43;;;;;;;11.93;6.63;;;;;;;;;;4994694;28;20033;-48
2021/09/01 08:08:09;;;;;;;12.07;4.50;;;;;;;;;;4995976;28;20034;-46
2021/09/01 08:10:35;;;;;;;8.18;5.28;;;;;;;;;;4997337;28;20058;-46
2021/09/01 08:13:01;;;;;;;10.13;5.32;;;;;;;;;;4997665;28;20058;-47
2021/09/01 08:15:28;;;;;;;9.82;5.80;;;;;;;;;;4997172;28;20030;-48
2021/09/01 08:17:54;;;;;;;27.50;15.85;;;;;;;;;;4997090;28;20081;-47
2021/09/01 08:20:20;;;;;;;30.70;18.85;;;;;;;;;;4996772;28;20030;-50
2021/09/01 08:22:46;;;;;;;74.63;44.75;;;;;;;;;;4997302;28;20057;-51
2021/09/01 08:25:12;;;;;;;95.60;51.42;;;;;;;;;;4997176;28;20466;-48
2021/09/01 08:27:38;;;;;;;181.30;81.45;;;;;;;;;;4997169;28;20073;-53
2021/09/01 08:30:06;;;;;;;199.27;85.95;;;;;;;;;;4997150;28;20026;-48
2021/09/01 08:32:32;;;;;;;65.97;35.28;;;;;;;;;;4997179;28;20097;-58
2021/09/01 08:34:58;;;;;;;69.35;31.38;;;;;;;;;;4997149;28;20486;-55
2021/09/01 08:37:24;;;;;;;68.25;43.35;;;;;;;;;;4996846;28;20046;-54
2021/09/01 08:39:50;;;;;;;14.90;9.25;;;;;;;;;;4996818;28;20386;-53
2021/09/01 08:42:20;;;;;;;12.50;7.88;;;;;;;;;;4997008;28;20478;-53
2021/09/01 08:44:46;;;;;;;9.73;6.70;;;;;;;;;;4997009;28;20065;-50
2021/09/01 08:47:15;;;;;;;18.83;11.90;;;;;;;;;;4996682;28;20034;-49
2021/09/01 08:49:45;;;;;;;49.72;24.98;;;;;;;;;;4996131;28;20360;-50
2021/09/01 08:52:11;;;;;;;29.60;15.07;;;;;;;;;;4995366;28;20051;-49
2021/09/01 08:54:37;;;;;;;36.75;17.35;;;;;;;;;;4995356;28;20015;-50
2021/09/01 08:57:03;;;;;;;47.42;31.83;;;;;;;;;;4995288;28;20030;-52
2021/09/01 08:59:30;;;;;;;98.45;60.92;;;;;;;;;;4995250;28;20041;-50
2021/09/01 09:01:58;;;;;;;97.68;42.33;;;;;;;;;;4992661;28;20037;-51
2021/09/01 09:04:29;;;;;;;109.75;43.33;;;;;;;;;;4995118;28;20021;-51
2021/09/01 09:06:59;;;;;;;106.47;41.35;;;;;;;;;;4994871;28;20038;-50
2021/09/01 09:09:30;;;;;;;60.57;24.13;;;;;;;;;;4992212;28;20509;-50
2021/09/01 09:11:56;;;;;;;59.37;34.03;;;;;;;;;;4995134;28;20034;-48
2021/09/01 09:14:25;;;;;;;16.95;6.60;;;;;;;;;;4994841;28;20466;-47
2021/09/01 09:17:04;;;;;;;7.55;4.60;;;;;;;;;;4994568;28;20030;-47
2021/09/01 09:19:49;;;;;;;14.50;7.10;;;;;;;;;;4992829;28;20034;-52
2021/09/01 09:22:20;;;;;;;20.50;12.63;;;;;;;;;;4993711;28;20625;-52
2021/09/01 09:25:01;;;;;;;247.18;184.02;;;;;;;;;;4992322;28;20109;-50
2021/09/01 09:27:46;;;;;;;70.43;43.47;;;;;;;;;;4992484;28;20077;-51
2021/09/01 09:30:38;;;;;;;46.15;22.23;;;;;;;;;;4993027;28;20018;-47
2021/09/01 09:33:04;;;;;;;33.75;18.75;;;;;;;;;;4990825;28;20038;-48
2021/09/01 09:35:51;;;;;;;17.30;7.90;;;;;;;;;;4994582;28;20038;-49
2021/09/01 09:38:26;;;;;;;7.03;4.80;;;;;;;;;;4987915;28;20050;-51
2021/09/01 09:40:54;;;;;;;7.68;5.43;;;;;;;;;;4995452;28;20030;-49
2021/09/01 09:43:22;;;;;;;5.78;4.03;;;;;;;;;;4994421;28;20030;-49
2021/09/01 09:45:49;;;;;;;11.77;5.18;;;;;;;;;;4995903;28;20026;-49
2021/09/01 09:48:26;;;;;;;8.73;4.10;;;;;;;;;;4995816;28;20031;-49
2021/09/01 09:50:52;;;;;;;8.25;4.50;;;;;;;;;;4995625;28;20026;-51
2021/09/01 09:53:38;;;;;;;9.55;3.83;;;;;;;;;;4995768;28;20085;-53
2021/09/01 09:56:05;;;;;;;8.30;4.40;;;;;;;;;;4995366;28;20058;-49
2021/09/01 09:58:36;;;;;;;11.38;4.10;;;;;;;;;;4995710;28;20505;-50
2021/09/01 10:01:08;;;;;;;11.63;3.85;;;;;;;;;;4995676;28;20037;-49
2021/09/01 10:03:35;;;;;;;7.00;3.80;;;;;;;;;;4995730;28;20089;-52
2021/09/01 10:06:01;;;;;;;7.78;4.07;;;;;;;;;;4995775;28;20022;-51
2021/09/01 10:08:29;;;;;;;7.50;3.65;;;;;;;;;;4995591;28;20064;-47
2021/09/01 10:10:55;;;;;;;6.03;4.20;;;;;;;;;;4995339;28;20056;-51
2021/09/01 10:13:25;;;;;;;6.47;4.03;;;;;;;;;;4994342;28;20061;-51
2021/09/01 10:15:52;;;;;;;9.13;3.60;;;;;;;;;;4993820;28;20101;-52
2021/09/01 10:18:18;;;;;;;8.32;3.83;;;;;;;;;;4993884;28;20034;-51
2021/09/01 10:20:45;;;;;;;4.90;3.45;;;;;;;;;;4993804;28;20026;-51
2021/09/01 10:23:12;;;;;;;9.88;3.97;;;;;;;;;;4994046;28;20030;-48
2021/09/01 10:25:52;;;;;;;8.40;3.88;;;;;;;;;;4993771;28;20026;-46
2021/09/01 10:28:21;;;;;;;12.50;4.18;;;;;;;;;;4991070;28;20037;-49
2021/09/01 10:31:06;;;;;;;11.57;4.43;;;;;;;;;;4993703;28;20029;-48
2021/09/01 10:33:37;;;;;;;11.55;4.13;;;;;;;;;;4993345;28;20026;-47
2021/09/01 10:36:22;;;;;;;8.35;3.67;;;;;;;;;;4993679;28;20157;-50
2021/09/01 10:38:48;;;;;;;13.00;3.80;;;;;;;;;;4992629;28;20038;-51
2021/09/01 10:41:27;;;;;;;6.18;3.65;;;;;;;;;;4993394;28;20019;-51
2021/09/01 10:43:54;;;;;;;15.07;8.05;;;;;;;;;;4993568;28;20023;-55
2021/09/01 10:46:20;;;;;;;16.95;7.47;;;;;;;;;;4994321;28;20022;-55
2021/09/01 10:48:57;;;;;;;17.88;10.07;;;;;;;;;;4993881;28;20506;-54
2021/09/01 10:51:30;;;;;;;18.25;6.13;;;;;;;;;;4992155;28;20022;-53
2021/09/01 10:54:16;;;;;;;9.10;5.00;;;;;;;;;;4991053;28;20088;-53
2021/09/01 10:56:51;;;;;;;7.53;4.25;;;;;;;;;;4991814;28;20033;-53
2021/09/01 10:59:25;;;;;;;6.53;4.00;;;;;;;;;;4990225;28;20026;-53
2021/09/01 11:02:10;;;;;;;8.18;3.80;;;;;;;;;;4993351;28;20022;-53
2021/09/01 11:04:45;;;;;;;8.18;3.92;;;;;;;;;;4992462;28;20030;-53
2021/09/01 11:07:11;;;;;;;14.35;3.65;;;;;;;;;;4992844;28;20030;-52
2021/09/01 11:09:37;;;;;;;6.53;3.35;;;;;;;;;;4994172;28;20082;-52
2021/09/01 11:12:04;;;;;;;5.40;3.08;;;;;;;;;;4994444;28;20026;-50
2021/09/01 11:14:42;;;;;;;7.43;4.20;;;;;;;;;;4992783;28;20030;-54
2021/09/01 11:17:09;;;;;;;4.45;3.10;;;;;;;;;;4992856;28;20035;-53
2021/09/01 11:19:35;;;;;;;7.45;3.35;;;;;;;;;;4993104;28;20030;-53
2021/09/01 11:22:08;;;;;;;5.43;3.55;;;;;;;;;;4992976;28;20015;-52
2021/09/01 11:24:50;;;;;;;6.75;3.72;;;;;;;;;;4992990;28;20022;-52
2021/09/01 11:27:19;;;;;;;9.98;4.93;;;;;;;;;;4994093;28;20030;-54
2021/09/01 11:29:46;;;;;;;11.65;4.40;;;;;;;;;;4993861;28;20069;-51
2021/09/01 11:32:16;;;;;;;146.63;94.95;;;;;;;;;;4994249;28;20359;-50
2021/09/01 11:34:43;;;;;;;23.63;13.85;;;;;;;;;;4992604;28;20066;-52
2021/09/01 11:37:09;;;;;;;185.65;84.03;;;;;;;;;;4993865;28;20042;-53
2021/09/01 11:39:42;;;;;;;47.75;20.30;;;;;;;;;;4993694;28;20026;-52
2021/09/01 11:42:10;;;;;;;39.60;18.95;;;;;;;;;;4993930;28;20419;-51
2021/09/01 11:44:37;;;;;;;36.47;15.95;;;;;;;;;;4994057;28;20080;-51
2021/09/01 11:47:05;;;;;;;23.42;13.63;;;;;;;;;;4993683;28;20029;-50
2021/09/01 11:49:33;;;;;;;26.58;13.90;;;;;;;;;;4993853;28;20026;-51
2021/09/01 11:51:59;;;;;;;28.20;16.73;;;;;;;;;;4993608;28;20058;-50
2021/09/01 11:54:25;;;;;;;54.42;32.03;;;;;;;;;;4993729;28;20030;-49
2021/09/01 11:56:52;;;;;;;56.58;35.70;;;;;;;;;;4993616;28;20062;-50
2021/09/01 11:59:19;;;;;;;23.85;13.70;;;;;;;;;;4993919;28;20133;-49
2021/09/01 12:01:46;;;;;;;55.60;32.83;;;;;;;;;;4994007;28;20022;-53
2021/09/01 12:04:17;;;;;;;103.22;68.05;;;;;;;;;;4993736;28;20069;-48
2021/09/01 12:06:44;;;;;;;54.28;29.70;;;;;;;;;;4993865;28;20105;-49
2021/09/01 12:09:14;;;;;;;46.90;25.67;;;;;;;;;;4993538;28;20177;-47
2021/09/01 12:12:01;;;;;;;54.58;31.83;;;;;;;;;;4993493;28;20034;-52
2021/09/01 12:14:30;;;;;;;32.25;12.95;;;;;;;;;;4993459;28;20038;-51
2021/09/01 12:17:17;;;;;;;14.93;6.80;;;;;;;;;;4993716;28;20062;-53
2021/09/01 12:19:50;;;;;;;9.10;5.53;;;;;;;;;;4993653;28;20037;-52
2021/09/01 12:22:35;;;;;;;10.88;4.78;;;;;;;;;;4993600;28;20022;-53
2021/09/01 12:25:07;;;;;;;14.73;7.93;;;;;;;;;;4993575;28;20027;-51
2021/09/01 12:27:34;;;;;;;20.77;11.52;;;;;;;;;;4993661;28;20026;-51
2021/09/01 12:30:00;;;;;;;19.90;9.65;;;;;;;;;;4993409;28;20037;-51
2021/09/01 12:32:26;;;;;;;76.63;22.83;;;;;;;;;;4993771;28;20023;-49
2021/09/01 12:34:54;;;;;;;69.15;41.70;;;;;;;;;;4993425;28;20033;-54
2021/09/01 12:37:27;;;;;;;33.88;19.25;;;;;;;;;;4993353;28;20380;-52
2021/09/01 12:39:55;;;;;;;24.15;12.57;;;;;;;;;;4993292;28;20026;-50
2021/09/01 12:42:23;;;;;;;20.65;10.23;;;;;;;;;;4993397;28;20054;-51
2021/09/01 12:44:53;;;;;;;86.20;55.22;;;;;;;;;;4993389;28;20023;-54
2021/09/01 12:47:19;;;;;;;60.55;29.33;;;;;;;;;;4993346;28;20030;-52
2021/09/01 12:49:47;;;;;;;120.15;73.88;;;;;;;;;;4993274;28;20058;-51
2021/09/01 12:52:14;;;;;;;91.60;51.13;;;;;;;;;;4995087;28;20033;-53
2021/09/01 12:54:40;;;;;;;50.60;26.38;;;;;;;;;;4996871;28;20022;-53
2021/09/01 12:57:06;;;;;;;114.88;62.97;;;;;;;;;;4996781;28;20069;-52
2021/09/01 12:59:35;;;;;;;29.55;16.67;;;;;;;;;;4995426;28;20569;-52
2021/09/01 13:02:01;;;;;;;22.48;13.25;;;;;;;;;;4995340;28;20150;-53
2021/09/01 13:04:28;;;;;;;19.73;12.40;;;;;;;;;;4995693;28;20026;-51
2021/09/01 13:06:55;;;;;;;16.38;9.73;;;;;;;;;;4996014;28;20124;-52
2021/09/01 13:09:22;;;;;;;12.38;8.27;;;;;;;;;;4995058;28;20038;-53
2021/09/01 13:11:48;;;;;;;14.27;7.78;;;;;;;;;;4995170;28;20041;-52
2021/09/01 13:14:14;;;;;;;11.38;6.95;;;;;;;;;;4995184;28;20402;-51
2021/09/01 13:16:40;;;;;;;10.15;4.85;;;;;;;;;;4992356;28;20035;-54
2021/09/01 13:19:06;;;;;;;6.78;4.38;;;;;;;;;;4995048;28;20371;-52
2021/09/01 13:21:32;;;;;;;8.25;3.58;;;;;;;;;;4994926;28;20085;-51
2021/09/01 13:23:58;;;;;;;6.43;3.65;;;;;;;;;;4995541;28;20455;-54
2021/09/01 13:26:24;;;;;;;9.05;3.53;;;;;;;;;;4996262;28;20026;-53
2021/09/01 13:28:50;;;;;;;10.25;3.97;;;;;;;;;;4996188;28;20053;-52
2021/09/01 13:31:16;;;;;;;15.82;8.75;;;;;;;;;;4996147;28;20394;-54
2021/09/01 13:33:42;;;;;;;11.07;4.78;;;;;;;;;;4996079;28;20073;-55
2021/09/01 13:36:08;;;;;;;8.75;4.00;;;;;;;;;;4996201;28;20030;-56
2021/09/01 13:38:34;;;;;;;7.68;4.13;;;;;;;;;;4995852;28;20483;-56
2021/09/01 13:41:01;;;;;;;83.57;52.22;;;;;;;;;;4995930;28;20034;-51
2021/09/01 13:43:27;;;;;;;20.70;11.82;;;;;;;;;;4996130;28;20511;-53
2021/09/01 13:45:53;;;;;;;85.68;38.22;;;;;;;;;;4996076;28;20054;-53
2021/09/01 13:48:19;;;;;;;29.05;15.30;;;;;;;;;;4995863;28;20026;-53
2021/09/01 13:50:45;;;;;;;20.20;10.48;;;;;;;;;;4995733;28;20513;-53
2021/09/01 13:53:13;;;;;;;23.38;11.57;;;;;;;;;;4995897;28;20033;-53
2021/09/01 13:55:39;;;;;;;25.08;14.60;;;;;;;;;;4995797;28;20026;-53
2021/09/01 13:58:05;;;;;;;11.02;5.30;;;;;;;;;;4995749;28;20113;-54
2021/09/01 14:00:32;;;;;;;46.50;25.45;;;;;;;;;;4995684;28;20018;-53
2021/09/01 14:02:59;;;;;;;14.48;9.25;;;;;;;;;;4994570;28;20382;-53
2021/09/01 14:05:30;;;;;;;46.67;23.38;;;;;;;;;;4995402;28;20504;-54
2021/09/01 14:07:56;;;;;;;35.92;19.67;;;;;;;;;;4995405;28;20033;-53
2021/09/01 14:10:22;;;;;;;46.17;22.73;;;;;;;;;;4994999;28;20046;-52
2021/09/01 14:12:48;;;;;;;23.80;9.43;;;;;;;;;;4995376;28;20091;-54
2021/09/01 14:15:15;;;;;;;16.65;6.15;;;;;;;;;;4995420;28;20023;-53
2021/09/01 14:17:41;;;;;;;21.63;6.05;;;;;;;;;;4995146;28;20088;-53
2021/09/01 14:20:08;;;;;;;16.58;5.95;;;;;;;;;;4995204;28;20023;-52
2021/09/01 14:22:36;;;;;;;16.58;6.40;;;;;;;;;;4993954;28;20085;-53
2021/09/01 14:25:02;;;;;;;32.30;9.43;;;;;;;;;;4991133;28;20014;-54
2021/09/01 14:27:28;;;;;;;15.02;5.07;;;;;;;;;;4993711;28;20030;-51
2021/09/01 14:29:54;;;;;;;10.80;4.22;;;;;;;;;;4994111;28;20037;-49
2021/09/01 14:32:20;;;;;;;9.88;3.65;;;;;;;;;;4993805;28;20026;-53
2021/09/01 14:34:47;;;;;;;6.32;3.92;;;;;;;;;;4992561;28;20493;-49